sensor_id;sensor_type;location;lat;lon;timestamp;P1;durP1;ratioP1;P2;durP2;ratioP2
62925;SDS011;55732;52.248;-0.844;2022-08-25T00:00:42;3.00;;;2.10;;
62925;SDS011;55732;52.248;-0.844;2022-08-25T00:03:09;3.00;;;2.50;;
62925;SDS011;55732;52.248;-0.844;2022-08-25T00:05:35;7.20;;;2.80;;
62925;SDS011;55732;52.248;-0.844;2022-08-25T00:08:01;4.80;;;2.60;;
62925;SDS011;55732;52.248;-0.844;2022-08-25T00:10:30;6.20;;;3.00;;
62925;SDS011;55732;52.248;-0.844;2022-08-25T00:12:59;4.10;;;2.80;;
62925;SDS011;55732;52.248;-0.844;2022-08-25T00:15:25;3.60;;;2.90;;
62925;SDS011;55732;52.248;-0.844;2022-08-25T00:17:52;4.40;;;3.20;;
62925;SDS011;55732;52.248;-0.844;2022-08-25T00:20:18;4.60;;;3.30;;
62925;SDS011;55732;52.248;-0.844;2022-08-25T00:22:44;4.30;;;3.10;;
62925;SDS011;55732;52.248;-0.844;2022-08-25T00:25:09;4.00;;;2.90;;
62925;SDS011;55732;52.248;-0.844;2022-08-25T00:27:35;4.10;;;3.00;;
62925;SDS011;55732;52.248;-0.844;2022-08-25T00:30:01;4.20;;;3.10;;
62925;SDS011;55732;52.248;-0.844;2022-08-25T00:32:28;8.80;;;3.20;;
62925;SDS011;55732;52.248;-0.844;2022-08-25T00:34:54;3.20;;;2.40;;
62925;SDS011;55732;52.248;-0.844;2022-08-25T00:37:19;5.20;;;2.90;;
62925;SDS011;55732;52.248;-0.844;2022-08-25T00:39:45;4.30;;;3.80;;
62925;SDS011;55732;52.248;-0.844;2022-08-25T00:42:11;5.90;;;4.10;;
62925;SDS011;55732;52.248;-0.844;2022-08-25T00:44:37;5.30;;;4.10;;
62925;SDS011;55732;52.248;-0.844;2022-08-25T00:47:03;5.00;;;4.20;;
62925;SDS011;55732;52.248;-0.844;2022-08-25T00:49:32;5.10;;;3.90;;
62925;SDS011;55732;52.248;-0.844;2022-08-25T00:52:05;7.40;;;4.60;;
62925;SDS011;55732;52.248;-0.844;2022-08-25T00:54:40;5.60;;;4.70;;
62925;SDS011;55732;52.248;-0.844;2022-08-25T00:57:11;5.80;;;4.80;;
62925;SDS011;55732;52.248;-0.844;2022-08-25T00:59:39;7.40;;;5.20;;
62925;SDS011;55732;52.248;-0.844;2022-08-25T01:02:06;6.60;;;5.20;;
62925;SDS011;55732;52.248;-0.844;2022-08-25T01:04:33;7.80;;;5.30;;
62925;SDS011;55732;52.248;-0.844;2022-08-25T01:06:58;7.50;;;5.60;;
62925;SDS011;55732;52.248;-0.844;2022-08-25T01:09:26;7.70;;;5.60;;
62925;SDS011;55732;52.248;-0.844;2022-08-25T01:11:56;8.20;;;6.00;;
62925;SDS011;55732;52.248;-0.844;2022-08-25T01:14:22;7.20;;;5.70;;
62925;SDS011;55732;52.248;-0.844;2022-08-25T01:16:49;7.30;;;5.90;;
62925;SDS011;55732;52.248;-0.844;2022-08-25T01:19:15;8.30;;;6.20;;
62925;SDS011;55732;52.248;-0.844;2022-08-25T01:21:45;6.60;;;5.70;;
62925;SDS011;55732;52.248;-0.844;2022-08-25T01:24:20;6.60;;;5.00;;
62925;SDS011;55732;52.248;-0.844;2022-08-25T01:27:02;7.30;;;5.90;;
62925;SDS011;55732;52.248;-0.844;2022-08-25T01:29:29;6.70;;;4.90;;
62925;SDS011;55732;52.248;-0.844;2022-08-25T01:31:57;6.70;;;5.30;;
62925;SDS011;55732;52.248;-0.844;2022-08-25T01:34:31;6.10;;;5.40;;
62925;SDS011;55732;52.248;-0.844;2022-08-25T01:36:58;5.70;;;4.40;;
62925;SDS011;55732;52.248;-0.844;2022-08-25T01:39:25;6.60;;;5.10;;
62925;SDS011;55732;52.248;-0.844;2022-08-25T01:44:24;9.00;;;6.30;;
62925;SDS011;55732;52.248;-0.844;2022-08-25T01:46:50;9.20;;;6.40;;
62925;SDS011;55732;52.248;-0.844;2022-08-25T01:49:16;9.70;;;6.30;;
62925;SDS011;55732;52.248;-0.844;2022-08-25T01:51:43;6.70;;;5.90;;
62925;SDS011;55732;52.248;-0.844;2022-08-25T01:54:13;9.20;;;6.90;;
62925;SDS011;55732;52.248;-0.844;2022-08-25T01:56:39;7.60;;;6.60;;
62925;SDS011;55732;52.248;-0.844;2022-08-25T01:59:04;9.80;;;7.50;;
62925;SDS011;55732;52.248;-0.844;2022-08-25T02:01:30;11.50;;;7.90;;
62925;SDS011;55732;52.248;-0.844;2022-08-25T02:03:56;9.40;;;7.80;;
62925;SDS011;55732;52.248;-0.844;2022-08-25T02:06:27;10.90;;;8.00;;
62925;SDS011;55732;52.248;-0.844;2022-08-25T02:09:12;10.30;;;8.30;;
62925;SDS011;55732;52.248;-0.844;2022-08-25T02:11:40;13.40;;;8.60;;
62925;SDS011;55732;52.248;-0.844;2022-08-25T02:14:08;11.00;;;8.20;;
62925;SDS011;55732;52.248;-0.844;2022-08-25T02:16:36;10.10;;;8.00;;
62925;SDS011;55732;52.248;-0.844;2022-08-25T02:19:03;10.30;;;8.80;;
62925;SDS011;55732;52.248;-0.844;2022-08-25T02:21:32;9.30;;;8.30;;
62925;SDS011;55732;52.248;-0.844;2022-08-25T02:23:59;12.50;;;9.50;;
62925;SDS011;55732;52.248;-0.844;2022-08-25T02:26:25;10.90;;;8.60;;
62925;SDS011;55732;52.248;-0.844;2022-08-25T02:28:51;11.30;;;8.70;;
62925;SDS011;55732;52.248;-0.844;2022-08-25T02:31:17;13.00;;;9.00;;
62925;SDS011;55732;52.248;-0.844;2022-08-25T02:33:45;15.00;;;9.60;;
62925;SDS011;55732;52.248;-0.844;2022-08-25T02:36:10;11.10;;;8.30;;
62925;SDS011;55732;52.248;-0.844;2022-08-25T02:38:36;12.00;;;9.20;;
62925;SDS011;55732;52.248;-0.844;2022-08-25T02:41:11;11.70;;;9.50;;
62925;SDS011;55732;52.248;-0.844;2022-08-25T02:43:39;14.50;;;9.60;;
62925;SDS011;55732;52.248;-0.844;2022-08-25T02:46:06;14.10;;;9.90;;
62925;SDS011;55732;52.248;-0.844;2022-08-25T02:48:32;15.40;;;11.10;;
62925;SDS011;55732;52.248;-0.844;2022-08-25T02:50:58;12.50;;;10.30;;
62925;SDS011;55732;52.248;-0.844;2022-08-25T02:53:26;14.30;;;10.90;;
62925;SDS011;55732;52.248;-0.844;2022-08-25T02:55:53;15.90;;;10.20;;
62925;SDS011;55732;52.248;-0.844;2022-08-25T02:58:19;12.90;;;10.40;;
62925;SDS011;55732;52.248;-0.844;2022-08-25T03:00:45;10.10;;;7.70;;
62925;SDS011;55732;52.248;-0.844;2022-08-25T03:03:12;12.00;;;10.50;;
62925;SDS011;55732;52.248;-0.844;2022-08-25T03:05:38;15.60;;;10.40;;
62925;SDS011;55732;52.248;-0.844;2022-08-25T03:08:04;14.10;;;11.10;;
62925;SDS011;55732;52.248;-0.844;2022-08-25T03:10:31;15.40;;;11.60;;
62925;SDS011;55732;52.248;-0.844;2022-08-25T03:12:56;18.80;;;11.80;;
62925;SDS011;55732;52.248;-0.844;2022-08-25T03:15:22;16.10;;;11.80;;
62925;SDS011;55732;52.248;-0.844;2022-08-25T03:17:50;15.60;;;11.20;;
62925;SDS011;55732;52.248;-0.844;2022-08-25T03:20:15;12.20;;;10.40;;
62925;SDS011;55732;52.248;-0.844;2022-08-25T03:22:42;15.60;;;12.20;;
62925;SDS011;55732;52.248;-0.844;2022-08-25T03:25:08;12.40;;;11.10;;
62925;SDS011;55732;52.248;-0.844;2022-08-25T03:27:53;12.60;;;10.70;;
62925;SDS011;55732;52.248;-0.844;2022-08-25T03:30:19;12.20;;;10.60;;
62925;SDS011;55732;52.248;-0.844;2022-08-25T03:32:44;14.50;;;11.20;;
62925;SDS011;55732;52.248;-0.844;2022-08-25T03:35:10;12.80;;;11.30;;
62925;SDS011;55732;52.248;-0.844;2022-08-25T03:37:36;13.50;;;11.10;;
62925;SDS011;55732;52.248;-0.844;2022-08-25T03:40:02;14.20;;;11.30;;
62925;SDS011;55732;52.248;-0.844;2022-08-25T03:42:30;13.00;;;11.80;;
62925;SDS011;55732;52.248;-0.844;2022-08-25T03:44:55;13.20;;;11.20;;
62925;SDS011;55732;52.248;-0.844;2022-08-25T03:47:21;12.10;;;10.80;;
62925;SDS011;55732;52.248;-0.844;2022-08-25T03:49:49;12.30;;;10.90;;
62925;SDS011;55732;52.248;-0.844;2022-08-25T03:52:15;13.30;;;10.90;;
62925;SDS011;55732;52.248;-0.844;2022-08-25T03:54:42;15.10;;;11.30;;
62925;SDS011;55732;52.248;-0.844;2022-08-25T03:57:08;12.50;;;11.20;;
62925;SDS011;55732;52.248;-0.844;2022-08-25T03:59:34;12.80;;;11.40;;
62925;SDS011;55732;52.248;-0.844;2022-08-25T04:02:02;13.70;;;10.90;;
62925;SDS011;55732;52.248;-0.844;2022-08-25T04:04:28;12.70;;;11.30;;
62925;SDS011;55732;52.248;-0.844;2022-08-25T04:06:54;12.50;;;11.30;;
62925;SDS011;55732;52.248;-0.844;2022-08-25T04:09:19;13.80;;;11.40;;
62925;SDS011;55732;52.248;-0.844;2022-08-25T04:11:45;13.10;;;11.10;;
62925;SDS011;55732;52.248;-0.844;2022-08-25T04:14:11;12.70;;;11.20;;
62925;SDS011;55732;52.248;-0.844;2022-08-25T04:16:37;12.90;;;11.60;;
62925;SDS011;55732;52.248;-0.844;2022-08-25T04:19:04;12.50;;;11.20;;
62925;SDS011;55732;52.248;-0.844;2022-08-25T04:21:31;14.90;;;12.30;;
62925;SDS011;55732;52.248;-0.844;2022-08-25T04:23:57;13.80;;;12.40;;
62925;SDS011;55732;52.248;-0.844;2022-08-25T04:26:32;16.00;;;13.20;;
62925;SDS011;55732;52.248;-0.844;2022-08-25T04:29:00;13.70;;;12.30;;
62925;SDS011;55732;52.248;-0.844;2022-08-25T04:31:27;14.80;;;12.90;;
62925;SDS011;55732;52.248;-0.844;2022-08-25T04:33:54;15.40;;;13.20;;
62925;SDS011;55732;52.248;-0.844;2022-08-25T04:36:20;16.50;;;13.20;;
62925;SDS011;55732;52.248;-0.844;2022-08-25T04:38:46;15.40;;;12.90;;
62925;SDS011;55732;52.248;-0.844;2022-08-25T04:41:14;16.70;;;14.00;;
62925;SDS011;55732;52.248;-0.844;2022-08-25T04:43:42;19.30;;;14.20;;
62925;SDS011;55732;52.248;-0.844;2022-08-25T04:46:13;18.50;;;14.40;;
62925;SDS011;55732;52.248;-0.844;2022-08-25T04:48:40;17.00;;;14.60;;
62925;SDS011;55732;52.248;-0.844;2022-08-25T04:51:07;21.00;;;14.80;;
62925;SDS011;55732;52.248;-0.844;2022-08-25T04:53:35;17.60;;;14.20;;
62925;SDS011;55732;52.248;-0.844;2022-08-25T04:56:00;15.80;;;14.10;;
62925;SDS011;55732;52.248;-0.844;2022-08-25T04:58:29;23.30;;;17.30;;
62925;SDS011;55732;52.248;-0.844;2022-08-25T05:01:00;20.60;;;16.30;;
62925;SDS011;55732;52.248;-0.844;2022-08-25T05:03:37;17.90;;;15.60;;
62925;SDS011;55732;52.248;-0.844;2022-08-25T05:06:03;19.30;;;15.70;;
62925;SDS011;55732;52.248;-0.844;2022-08-25T05:08:30;18.40;;;16.40;;
62925;SDS011;55732;52.248;-0.844;2022-08-25T05:10:56;24.10;;;16.00;;
62925;SDS011;55732;52.248;-0.844;2022-08-25T05:13:22;17.70;;;15.40;;
62925;SDS011;55732;52.248;-0.844;2022-08-25T05:15:53;20.70;;;16.30;;
62925;SDS011;55732;52.248;-0.844;2022-08-25T05:18:20;19.10;;;15.00;;
62925;SDS011;55732;52.248;-0.844;2022-08-25T05:20:48;16.10;;;14.40;;
62925;SDS011;55732;52.248;-0.844;2022-08-25T05:23:15;18.80;;;15.50;;
62925;SDS011;55732;52.248;-0.844;2022-08-25T05:25:41;18.40;;;15.80;;
62925;SDS011;55732;52.248;-0.844;2022-08-25T05:28:08;17.90;;;15.10;;
62925;SDS011;55732;52.248;-0.844;2022-08-25T05:30:36;19.80;;;16.10;;
62925;SDS011;55732;52.248;-0.844;2022-08-25T05:33:03;16.70;;;14.60;;
62925;SDS011;55732;52.248;-0.844;2022-08-25T05:35:29;18.30;;;15.60;;
62925;SDS011;55732;52.248;-0.844;2022-08-25T05:37:54;19.90;;;15.20;;
62925;SDS011;55732;52.248;-0.844;2022-08-25T05:40:21;19.70;;;15.80;;
62925;SDS011;55732;52.248;-0.844;2022-08-25T05:42:47;19.60;;;15.40;;
62925;SDS011;55732;52.248;-0.844;2022-08-25T05:45:13;19.90;;;15.50;;
62925;SDS011;55732;52.248;-0.844;2022-08-25T05:47:38;18.40;;;14.30;;
62925;SDS011;55732;52.248;-0.844;2022-08-25T05:50:05;19.40;;;15.30;;
62925;SDS011;55732;52.248;-0.844;2022-08-25T05:52:31;17.20;;;15.30;;
62925;SDS011;55732;52.248;-0.844;2022-08-25T05:54:57;16.50;;;14.50;;
62925;SDS011;55732;52.248;-0.844;2022-08-25T05:57:22;24.10;;;15.70;;
62925;SDS011;55732;52.248;-0.844;2022-08-25T05:59:48;16.10;;;13.70;;
62925;SDS011;55732;52.248;-0.844;2022-08-25T06:02:13;16.00;;;14.20;;
62925;SDS011;55732;52.248;-0.844;2022-08-25T06:04:58;25.20;;;14.90;;
62925;SDS011;55732;52.248;-0.844;2022-08-25T06:07:23;17.30;;;13.90;;
62925;SDS011;55732;52.248;-0.844;2022-08-25T06:09:49;16.40;;;13.30;;
62925;SDS011;55732;52.248;-0.844;2022-08-25T06:12:15;20.10;;;13.60;;
62925;SDS011;55732;52.248;-0.844;2022-08-25T06:14:41;17.30;;;13.20;;
62925;SDS011;55732;52.248;-0.844;2022-08-25T06:17:07;19.60;;;15.00;;
62925;SDS011;55732;52.248;-0.844;2022-08-25T06:19:32;16.50;;;14.50;;
62925;SDS011;55732;52.248;-0.844;2022-08-25T06:21:58;16.60;;;14.50;;
62925;SDS011;55732;52.248;-0.844;2022-08-25T06:24:24;15.90;;;14.00;;
62925;SDS011;55732;52.248;-0.844;2022-08-25T06:26:51;15.10;;;13.10;;
62925;SDS011;55732;52.248;-0.844;2022-08-25T06:29:17;15.70;;;12.70;;
62925;SDS011;55732;52.248;-0.844;2022-08-25T06:31:43;15.80;;;12.30;;
62925;SDS011;55732;52.248;-0.844;2022-08-25T06:34:10;16.80;;;12.00;;
62925;SDS011;55732;52.248;-0.844;2022-08-25T06:36:37;15.30;;;11.70;;
62925;SDS011;55732;52.248;-0.844;2022-08-25T06:39:02;14.00;;;11.00;;
62925;SDS011;55732;52.248;-0.844;2022-08-25T06:41:28;13.00;;;11.00;;
62925;SDS011;55732;52.248;-0.844;2022-08-25T06:43:54;15.10;;;11.30;;
62925;SDS011;55732;52.248;-0.844;2022-08-25T06:46:21;13.10;;;11.10;;
62925;SDS011;55732;52.248;-0.844;2022-08-25T06:48:48;12.70;;;11.20;;
62925;SDS011;55732;52.248;-0.844;2022-08-25T06:51:15;14.10;;;11.30;;
62925;SDS011;55732;52.248;-0.844;2022-08-25T06:53:42;11.90;;;10.70;;
62925;SDS011;55732;52.248;-0.844;2022-08-25T06:56:10;12.00;;;10.30;;
62925;SDS011;55732;52.248;-0.844;2022-08-25T06:58:36;15.20;;;11.00;;
62925;SDS011;55732;52.248;-0.844;2022-08-25T07:01:12;14.30;;;10.30;;
62925;SDS011;55732;52.248;-0.844;2022-08-25T07:03:39;11.20;;;10.00;;
62925;SDS011;55732;52.248;-0.844;2022-08-25T07:06:05;11.70;;;9.70;;
62925;SDS011;55732;52.248;-0.844;2022-08-25T07:08:31;14.00;;;10.00;;
62925;SDS011;55732;52.248;-0.844;2022-08-25T07:11:06;13.60;;;9.30;;
62925;SDS011;55732;52.248;-0.844;2022-08-25T07:13:32;12.60;;;8.80;;
62925;SDS011;55732;52.248;-0.844;2022-08-25T07:15:59;12.20;;;9.00;;
62925;SDS011;55732;52.248;-0.844;2022-08-25T07:18:25;12.80;;;8.60;;
62925;SDS011;55732;52.248;-0.844;2022-08-25T07:20:51;9.90;;;7.60;;
62925;SDS011;55732;52.248;-0.844;2022-08-25T07:23:18;9.30;;;6.80;;
62925;SDS011;55732;52.248;-0.844;2022-08-25T07:25:45;12.40;;;6.60;;
62925;SDS011;55732;52.248;-0.844;2022-08-25T07:28:11;9.00;;;6.60;;
62925;SDS011;55732;52.248;-0.844;2022-08-25T07:30:37;9.70;;;7.50;;
62925;SDS011;55732;52.248;-0.844;2022-08-25T07:33:03;9.80;;;6.40;;
62925;SDS011;55732;52.248;-0.844;2022-08-25T07:35:28;6.20;;;4.90;;
62925;SDS011;55732;52.248;-0.844;2022-08-25T07:37:56;7.20;;;6.00;;
62925;SDS011;55732;52.248;-0.844;2022-08-25T07:40:24;11.00;;;6.00;;
62925;SDS011;55732;52.248;-0.844;2022-08-25T07:42:53;7.70;;;5.10;;
62925;SDS011;55732;52.248;-0.844;2022-08-25T07:45:21;10.40;;;5.10;;
62925;SDS011;55732;52.248;-0.844;2022-08-25T07:47:55;7.40;;;4.60;;
62925;SDS011;55732;52.248;-0.844;2022-08-25T07:50:21;9.70;;;5.00;;
62925;SDS011;55732;52.248;-0.844;2022-08-25T07:52:47;8.70;;;4.70;;
62925;SDS011;55732;52.248;-0.844;2022-08-25T07:55:13;6.00;;;4.30;;
62925;SDS011;55732;52.248;-0.844;2022-08-25T07:57:39;8.90;;;4.50;;
62925;SDS011;55732;52.248;-0.844;2022-08-25T08:00:05;7.00;;;3.80;;
62925;SDS011;55732;52.248;-0.844;2022-08-25T08:02:32;7.50;;;4.10;;
62925;SDS011;55732;52.248;-0.844;2022-08-25T08:04:57;6.20;;;3.80;;
62925;SDS011;55732;52.248;-0.844;2022-08-25T08:07:24;4.80;;;3.40;;
62925;SDS011;55732;52.248;-0.844;2022-08-25T08:09:50;8.30;;;3.40;;
62925;SDS011;55732;52.248;-0.844;2022-08-25T08:12:16;6.10;;;3.30;;
62925;SDS011;55732;52.248;-0.844;2022-08-25T08:14:43;3.80;;;2.90;;
62925;SDS011;55732;52.248;-0.844;2022-08-25T08:17:09;5.10;;;3.00;;
62925;SDS011;55732;52.248;-0.844;2022-08-25T08:19:35;5.60;;;3.00;;
62925;SDS011;55732;52.248;-0.844;2022-08-25T08:22:02;5.60;;;3.00;;
62925;SDS011;55732;52.248;-0.844;2022-08-25T08:24:29;6.80;;;2.70;;
62925;SDS011;55732;52.248;-0.844;2022-08-25T08:26:56;5.30;;;2.90;;
62925;SDS011;55732;52.248;-0.844;2022-08-25T08:29:23;4.60;;;2.60;;
62925;SDS011;55732;52.248;-0.844;2022-08-25T08:31:48;7.30;;;2.80;;
62925;SDS011;55732;52.248;-0.844;2022-08-25T08:34:14;4.70;;;3.00;;
62925;SDS011;55732;52.248;-0.844;2022-08-25T08:36:40;6.40;;;2.80;;
62925;SDS011;55732;52.248;-0.844;2022-08-25T08:39:06;5.20;;;3.30;;
62925;SDS011;55732;52.248;-0.844;2022-08-25T08:41:49;5.00;;;3.00;;
62925;SDS011;55732;52.248;-0.844;2022-08-25T08:47:21;5.70;;;2.80;;
62925;SDS011;55732;52.248;-0.844;2022-08-25T08:55:39;5.30;;;2.90;;
62925;SDS011;55732;52.248;-0.844;2022-08-25T08:58:16;3.10;;;2.70;;
62925;SDS011;55732;52.248;-0.844;2022-08-25T09:00:49;6.30;;;3.20;;
62925;SDS011;55732;52.248;-0.844;2022-08-25T09:03:35;4.10;;;2.80;;
62925;SDS011;55732;52.248;-0.844;2022-08-25T09:06:10;4.60;;;3.20;;
62925;SDS011;55732;52.248;-0.844;2022-08-25T09:08:38;8.20;;;3.20;;
62925;SDS011;55732;52.248;-0.844;2022-08-25T09:13:49;5.30;;;3.20;;
62925;SDS011;55732;52.248;-0.844;2022-08-25T09:22:06;5.90;;;3.10;;
62925;SDS011;55732;52.248;-0.844;2022-08-25T09:27:34;6.90;;;3.60;;
62925;SDS011;55732;52.248;-0.844;2022-08-25T09:30:13;4.10;;;2.90;;
62925;SDS011;55732;52.248;-0.844;2022-08-25T09:32:52;6.30;;;3.60;;
62925;SDS011;55732;52.248;-0.844;2022-08-25T09:35:27;5.40;;;3.30;;
62925;SDS011;55732;52.248;-0.844;2022-08-25T09:37:58;5.20;;;3.40;;
62925;SDS011;55732;52.248;-0.844;2022-08-25T09:40:26;7.20;;;3.70;;
62925;SDS011;55732;52.248;-0.844;2022-08-25T09:42:55;5.30;;;3.10;;
62925;SDS011;55732;52.248;-0.844;2022-08-25T09:45:29;5.50;;;3.30;;
62925;SDS011;55732;52.248;-0.844;2022-08-25T09:47:55;7.40;;;3.60;;
62925;SDS011;55732;52.248;-0.844;2022-08-25T09:50:21;5.30;;;3.10;;
62925;SDS011;55732;52.248;-0.844;2022-08-25T09:52:46;8.80;;;3.80;;
62925;SDS011;55732;52.248;-0.844;2022-08-25T10:00:10;9.60;;;3.30;;
62925;SDS011;55732;52.248;-0.844;2022-08-25T10:02:39;7.20;;;3.20;;
62925;SDS011;55732;52.248;-0.844;2022-08-25T10:05:20;6.30;;;3.60;;
62925;SDS011;55732;52.248;-0.844;2022-08-25T10:07:50;6.30;;;3.10;;
62925;SDS011;55732;52.248;-0.844;2022-08-25T10:10:29;5.10;;;3.10;;
62925;SDS011;55732;52.248;-0.844;2022-08-25T10:13:01;8.00;;;3.20;;
62925;SDS011;55732;52.248;-0.844;2022-08-25T10:15:38;7.80;;;3.40;;
62925;SDS011;55732;52.248;-0.844;2022-08-25T10:23:31;3.90;;;2.90;;
62925;SDS011;55732;52.248;-0.844;2022-08-25T10:26:02;4.30;;;3.30;;
62925;SDS011;55732;52.248;-0.844;2022-08-25T10:28:45;6.80;;;2.90;;
62925;SDS011;55732;52.248;-0.844;2022-08-25T10:31:27;6.60;;;2.80;;
62925;SDS011;55732;52.248;-0.844;2022-08-25T10:34:09;5.30;;;2.80;;
62925;SDS011;55732;52.248;-0.844;2022-08-25T10:40:14;6.60;;;3.40;;
62925;SDS011;55732;52.248;-0.844;2022-08-25T10:45:34;5.90;;;3.20;;
62925;SDS011;55732;52.248;-0.844;2022-08-25T10:50:46;4.40;;;3.20;;
62925;SDS011;55732;52.248;-0.844;2022-08-25T11:07:00;12.00;;;2.40;;
62925;SDS011;55732;52.248;-0.844;2022-08-25T11:09:32;4.70;;;2.50;;
62925;SDS011;55732;52.248;-0.844;2022-08-25T11:12:08;2.50;;;2.00;;
62925;SDS011;55732;52.248;-0.844;2022-08-25T11:14:40;4.50;;;3.10;;
62925;SDS011;55732;52.248;-0.844;2022-08-25T11:20:23;6.20;;;2.40;;
62925;SDS011;55732;52.248;-0.844;2022-08-25T11:23:36;4.30;;;2.40;;
62925;SDS011;55732;52.248;-0.844;2022-08-25T11:25:53;5.80;;;2.30;;
62925;SDS011;55732;52.248;-0.844;2022-08-25T11:28:56;5.40;;;2.40;;
62925;SDS011;55732;52.248;-0.844;2022-08-25T11:31:29;2.50;;;2.00;;
62925;SDS011;55732;52.248;-0.844;2022-08-25T11:33:55;5.60;;;2.40;;
62925;SDS011;55732;52.248;-0.844;2022-08-25T11:50:02;6.40;;;2.50;;
62925;SDS011;55732;52.248;-0.844;2022-08-25T11:55:05;4.70;;;2.10;;
62925;SDS011;55732;52.248;-0.844;2022-08-25T11:57:31;2.30;;;2.00;;
62925;SDS011;55732;52.248;-0.844;2022-08-25T12:00:01;3.70;;;2.30;;
62925;SDS011;55732;52.248;-0.844;2022-08-25T12:10:22;2.80;;;1.90;;
62925;SDS011;55732;52.248;-0.844;2022-08-25T12:12:57;4.00;;;1.90;;
62925;SDS011;55732;52.248;-0.844;2022-08-25T12:18:14;3.60;;;1.80;;
62925;SDS011;55732;52.248;-0.844;2022-08-25T12:28:41;8.00;;;2.20;;
62925;SDS011;55732;52.248;-0.844;2022-08-25T12:39:42;4.90;;;2.30;;
62925;SDS011;55732;52.248;-0.844;2022-08-25T12:42:26;4.20;;;2.20;;
62925;SDS011;55732;52.248;-0.844;2022-08-25T12:45:09;2.40;;;1.80;;
62925;SDS011;55732;52.248;-0.844;2022-08-25T12:47:38;3.80;;;2.20;;
62925;SDS011;55732;52.248;-0.844;2022-08-25T12:52:53;3.40;;;2.10;;
62925;SDS011;55732;52.248;-0.844;2022-08-25T12:55:21;5.60;;;2.00;;
62925;SDS011;55732;52.248;-0.844;2022-08-25T12:57:51;4.30;;;1.80;;
62925;SDS011;55732;52.248;-0.844;2022-08-25T13:00:24;4.50;;;2.20;;
62925;SDS011;55732;52.248;-0.844;2022-08-25T13:07:57;3.20;;;2.20;;
62925;SDS011;55732;52.248;-0.844;2022-08-25T13:16:18;3.00;;;2.50;;
62925;SDS011;55732;52.248;-0.844;2022-08-25T13:18:50;5.40;;;2.40;;
62925;SDS011;55732;52.248;-0.844;2022-08-25T13:23:49;6.40;;;2.60;;
62925;SDS011;55732;52.248;-0.844;2022-08-25T13:26:21;5.00;;;2.90;;
62925;SDS011;55732;52.248;-0.844;2022-08-25T13:28:50;3.40;;;2.30;;
62925;SDS011;55732;52.248;-0.844;2022-08-25T13:31:22;3.90;;;2.70;;
62925;SDS011;55732;52.248;-0.844;2022-08-25T13:33:59;4.70;;;3.00;;
62925;SDS011;55732;52.248;-0.844;2022-08-25T13:36:30;8.90;;;2.90;;
62925;SDS011;55732;52.248;-0.844;2022-08-25T13:39:25;5.30;;;2.70;;
62925;SDS011;55732;52.248;-0.844;2022-08-25T13:44:19;3.30;;;2.50;;
62925;SDS011;55732;52.248;-0.844;2022-08-25T13:46:47;4.30;;;2.50;;
62925;SDS011;55732;52.248;-0.844;2022-08-25T13:49:28;2.70;;;2.00;;
62925;SDS011;55732;52.248;-0.844;2022-08-25T13:51:54;3.10;;;2.40;;
62925;SDS011;55732;52.248;-0.844;2022-08-25T13:54:27;4.90;;;2.70;;
62925;SDS011;55732;52.248;-0.844;2022-08-25T13:59:53;5.90;;;2.60;;
62925;SDS011;55732;52.248;-0.844;2022-08-25T14:08:05;3.20;;;1.90;;
62925;SDS011;55732;52.248;-0.844;2022-08-25T14:10:52;2.80;;;1.90;;
62925;SDS011;55732;52.248;-0.844;2022-08-25T14:13:37;2.30;;;2.00;;
62925;SDS011;55732;52.248;-0.844;2022-08-25T14:16:08;4.20;;;2.40;;
62925;SDS011;55732;52.248;-0.844;2022-08-25T14:18:38;3.00;;;2.30;;
62925;SDS011;55732;52.248;-0.844;2022-08-25T14:21:10;2.80;;;2.20;;
62925;SDS011;55732;52.248;-0.844;2022-08-25T14:23:36;3.00;;;2.20;;
62925;SDS011;55732;52.248;-0.844;2022-08-25T14:26:03;3.40;;;2.10;;
62925;SDS011;55732;52.248;-0.844;2022-08-25T14:28:29;3.30;;;1.90;;
62925;SDS011;55732;52.248;-0.844;2022-08-25T14:31:09;2.30;;;2.00;;
62925;SDS011;55732;52.248;-0.844;2022-08-25T14:33:42;2.60;;;1.80;;
62925;SDS011;55732;52.248;-0.844;2022-08-25T14:36:15;4.20;;;2.30;;
62925;SDS011;55732;52.248;-0.844;2022-08-25T14:38:41;3.40;;;2.30;;
62925;SDS011;55732;52.248;-0.844;2022-08-25T14:41:06;2.20;;;1.90;;
62925;SDS011;55732;52.248;-0.844;2022-08-25T14:43:32;2.50;;;2.00;;
62925;SDS011;55732;52.248;-0.844;2022-08-25T14:46:02;3.70;;;2.40;;
62925;SDS011;55732;52.248;-0.844;2022-08-25T14:48:39;3.00;;;1.90;;
62925;SDS011;55732;52.248;-0.844;2022-08-25T14:51:07;3.00;;;1.90;;
62925;SDS011;55732;52.248;-0.844;2022-08-25T14:53:36;2.20;;;1.80;;
62925;SDS011;55732;52.248;-0.844;2022-08-25T14:56:02;2.70;;;1.90;;
62925;SDS011;55732;52.248;-0.844;2022-08-25T14:58:27;2.30;;;1.90;;
62925;SDS011;55732;52.248;-0.844;2022-08-25T15:00:53;2.90;;;2.00;;
62925;SDS011;55732;52.248;-0.844;2022-08-25T15:06:18;5.00;;;2.10;;
62925;SDS011;55732;52.248;-0.844;2022-08-25T15:08:43;2.90;;;2.10;;
62925;SDS011;55732;52.248;-0.844;2022-08-25T15:11:28;2.50;;;1.70;;
62925;SDS011;55732;52.248;-0.844;2022-08-25T15:13:55;3.80;;;1.90;;
62925;SDS011;55732;52.248;-0.844;2022-08-25T15:16:28;2.40;;;1.90;;
62925;SDS011;55732;52.248;-0.844;2022-08-25T15:18:56;2.20;;;1.80;;
62925;SDS011;55732;52.248;-0.844;2022-08-25T15:21:23;2.60;;;2.00;;
62925;SDS011;55732;52.248;-0.844;2022-08-25T15:23:48;2.70;;;1.80;;
62925;SDS011;55732;52.248;-0.844;2022-08-25T15:26:14;2.60;;;2.20;;
62925;SDS011;55732;52.248;-0.844;2022-08-25T15:33:34;2.80;;;1.80;;
62925;SDS011;55732;52.248;-0.844;2022-08-25T15:36:00;2.20;;;1.90;;
62925;SDS011;55732;52.248;-0.844;2022-08-25T15:38:25;2.20;;;1.80;;
62925;SDS011;55732;52.248;-0.844;2022-08-25T15:40:51;5.00;;;1.90;;
62925;SDS011;55732;52.248;-0.844;2022-08-25T15:43:16;3.10;;;2.10;;
62925;SDS011;55732;52.248;-0.844;2022-08-25T15:45:41;2.00;;;1.80;;
62925;SDS011;55732;52.248;-0.844;2022-08-25T15:48:07;2.00;;;1.80;;
62925;SDS011;55732;52.248;-0.844;2022-08-25T15:50:32;1.90;;;1.80;;
62925;SDS011;55732;52.248;-0.844;2022-08-25T15:52:58;4.10;;;1.90;;
62925;SDS011;55732;52.248;-0.844;2022-08-25T15:55:24;1.60;;;1.50;;
62925;SDS011;55732;52.248;-0.844;2022-08-25T15:57:49;2.60;;;1.90;;
62925;SDS011;55732;52.248;-0.844;2022-08-25T16:00:15;2.20;;;1.80;;
62925;SDS011;55732;52.248;-0.844;2022-08-25T16:02:42;1.60;;;1.50;;
62925;SDS011;55732;52.248;-0.844;2022-08-25T16:05:09;1.60;;;1.50;;
62925;SDS011;55732;52.248;-0.844;2022-08-25T16:07:35;1.80;;;1.70;;
62925;SDS011;55732;52.248;-0.844;2022-08-25T16:10:01;2.30;;;1.80;;
62925;SDS011;55732;52.248;-0.844;2022-08-25T16:12:27;2.10;;;1.80;;
62925;SDS011;55732;52.248;-0.844;2022-08-25T16:14:53;1.60;;;1.40;;
62925;SDS011;55732;52.248;-0.844;2022-08-25T16:17:18;3.30;;;1.70;;
62925;SDS011;55732;52.248;-0.844;2022-08-25T16:19:44;4.10;;;1.80;;
62925;SDS011;55732;52.248;-0.844;2022-08-25T16:22:10;2.20;;;1.90;;
62925;SDS011;55732;52.248;-0.844;2022-08-25T16:24:40;2.70;;;1.80;;
62925;SDS011;55732;52.248;-0.844;2022-08-25T16:27:09;2.30;;;1.60;;
62925;SDS011;55732;52.248;-0.844;2022-08-25T16:29:36;2.50;;;1.90;;
62925;SDS011;55732;52.248;-0.844;2022-08-25T16:32:03;2.10;;;1.80;;
62925;SDS011;55732;52.248;-0.844;2022-08-25T16:34:30;3.60;;;1.90;;
62925;SDS011;55732;52.248;-0.844;2022-08-25T16:36:56;2.10;;;1.70;;
62925;SDS011;55732;52.248;-0.844;2022-08-25T16:39:22;3.40;;;1.90;;
62925;SDS011;55732;52.248;-0.844;2022-08-25T16:41:48;2.80;;;1.90;;
62925;SDS011;55732;52.248;-0.844;2022-08-25T16:44:14;2.40;;;1.50;;
62925;SDS011;55732;52.248;-0.844;2022-08-25T16:46:41;2.50;;;1.70;;
62925;SDS011;55732;52.248;-0.844;2022-08-25T16:49:07;1.60;;;1.50;;
62925;SDS011;55732;52.248;-0.844;2022-08-25T16:51:34;2.80;;;1.90;;